createdAt,value
2023-05-15T00:00:03.937Z,7.00
2023-05-15T00:02:30.898Z,7.07
2023-05-15T00:04:57.798Z,7.75
2023-05-15T00:07:24.762Z,7.45
2023-05-15T00:09:51.632Z,9.35
2023-05-15T00:12:18.580Z,7.70
2023-05-15T00:14:45.501Z,10.40
2023-05-15T00:17:12.350Z,8.63
2023-05-15T00:19:39.285Z,7.75
2023-05-15T00:22:06.381Z,6.70
2023-05-15T00:24:34.339Z,7.68
2023-05-15T00:27:01.900Z,7.93
2023-05-15T00:29:28.723Z,8.25
2023-05-15T00:31:55.618Z,8.35
2023-05-15T00:34:22.531Z,7.55
2023-05-15T00:36:49.544Z,6.38
2023-05-15T00:39:16.429Z,6.23
2023-05-15T00:41:45.152Z,6.93
2023-05-15T00:44:12.915Z,8.18
2023-05-15T00:46:40.229Z,7.80
2023-05-15T00:49:07.555Z,8.77
2023-05-15T00:51:35.926Z,8.40
2023-05-15T00:54:03.246Z,8.38
2023-05-15T00:56:30.505Z,7.65
2023-05-15T00:58:58.231Z,6.68
2023-05-15T01:01:25.095Z,7.55
2023-05-15T01:03:52.136Z,6.70
2023-05-15T01:06:19.022Z,7.63
2023-05-15T01:08:49.814Z,8.63
2023-05-15T01:11:18.023Z,6.97
2023-05-15T01:13:44.895Z,6.53
2023-05-15T01:16:11.723Z,6.93
2023-05-15T01:18:38.719Z,7.22
2023-05-15T01:21:43.267Z,7.57
2023-05-15T01:24:43.196Z,8.80
2023-05-15T01:27:19.526Z,7.95
2023-05-15T01:30:12.641Z,7.83
2023-05-15T01:32:46.682Z,7.63
2023-05-15T01:35:37.254Z,8.75
2023-05-15T01:38:19.412Z,7.75
2023-05-15T01:40:48.464Z,8.57
2023-05-15T01:43:21.981Z,8.67
2023-05-15T01:45:48.820Z,7.45
2023-05-15T01:48:17.097Z,6.57
2023-05-15T01:50:45.881Z,7.97
2023-05-15T01:53:12.946Z,8.10
2023-05-15T01:55:41.290Z,9.03
2023-05-15T01:58:09.318Z,7.75
2023-05-15T02:00:38.423Z,12.27
2023-05-15T02:03:07.022Z,7.88
2023-05-15T02:05:35.631Z,6.95
2023-05-15T02:08:03.742Z,9.13
2023-05-15T02:10:33.131Z,9.45
2023-05-15T02:13:01.734Z,7.05
2023-05-15T02:15:29.801Z,7.10
2023-05-15T02:17:56.772Z,7.78
2023-05-15T02:20:23.922Z,7.00
2023-05-15T02:22:50.777Z,8.95
2023-05-15T02:25:17.650Z,10.38
2023-05-15T02:28:00.659Z,7.57
2023-05-15T02:30:49.633Z,7.97
2023-05-15T02:33:25.510Z,8.67
2023-05-15T02:35:58.967Z,9.45
2023-05-15T02:38:32.444Z,7.57
2023-05-15T02:41:00.950Z,7.22
2023-05-15T02:43:28.836Z,7.13
2023-05-15T02:45:57.537Z,7.70
2023-05-15T02:48:25.360Z,9.45
2023-05-15T02:50:53.361Z,10.48
2023-05-15T02:53:20.304Z,8.00
2023-05-15T02:55:47.368Z,8.50
2023-05-15T02:58:14.696Z,7.40
2023-05-15T03:00:41.489Z,8.48
2023-05-15T03:03:08.292Z,6.95
2023-05-15T03:05:35.097Z,10.32
2023-05-15T03:08:01.955Z,8.52
2023-05-15T03:10:28.742Z,7.53
2023-05-15T03:12:56.580Z,7.38
2023-05-15T03:15:23.811Z,7.90
2023-05-15T03:17:50.768Z,7.25
2023-05-15T03:20:17.749Z,6.50
2023-05-15T03:22:44.716Z,7.03
2023-05-15T03:25:12.013Z,6.45
2023-05-15T03:27:39.195Z,7.65
2023-05-15T03:30:06.935Z,8.18
2023-05-15T03:32:33.920Z,8.00
2023-05-15T03:35:00.770Z,8.13
2023-05-15T03:37:27.586Z,7.55
2023-05-15T03:39:54.416Z,6.95
2023-05-15T03:42:21.287Z,6.40
2023-05-15T03:44:48.211Z,7.47
2023-05-15T03:47:15.039Z,6.63
2023-05-15T03:49:42.472Z,7.10
2023-05-15T03:52:09.855Z,7.93
2023-05-15T03:54:36.934Z,7.35
2023-05-15T03:57:03.997Z,8.57
2023-05-15T03:59:31.096Z,8.57
2023-05-15T04:04:29.396Z,9.40
2023-05-15T04:06:56.364Z,7.70
2023-05-15T04:09:23.164Z,7.10
2023-05-15T04:11:50.280Z,7.47
2023-05-15T04:14:17.178Z,7.65
2023-05-15T04:16:44.101Z,7.20
2023-05-15T04:19:11.218Z,9.10
2023-05-15T04:21:38.206Z,7.95
2023-05-15T04:24:05.216Z,6.63
2023-05-15T04:26:32.045Z,10.10
2023-05-15T04:29:04.132Z,8.20
2023-05-15T04:31:32.097Z,8.07
2023-05-15T04:33:59.101Z,8.25
2023-05-15T04:36:25.912Z,8.23
2023-05-15T04:38:52.827Z,8.23
2023-05-15T04:41:19.698Z,9.13
2023-05-15T04:43:46.527Z,7.45
2023-05-15T04:46:13.392Z,7.63
2023-05-15T04:48:40.477Z,8.27
2023-05-15T04:51:07.313Z,7.00
2023-05-15T04:53:34.203Z,7.18
2023-05-15T04:56:01.184Z,8.02
2023-05-15T04:58:28.041Z,8.68
2023-05-15T05:00:54.859Z,8.30
2023-05-15T05:03:21.803Z,8.35
2023-05-15T05:05:48.861Z,7.18
2023-05-15T05:08:15.627Z,7.72
2023-05-15T05:10:42.614Z,6.72
2023-05-15T05:13:12.085Z,8.40
2023-05-15T05:15:38.923Z,7.00
2023-05-15T05:18:06.318Z,8.82
2023-05-15T05:20:33.184Z,6.68
2023-05-15T05:23:00.038Z,7.13
2023-05-15T05:25:26.992Z,7.53
2023-05-15T05:27:53.928Z,7.32
2023-05-15T05:30:20.924Z,7.40
2023-05-15T05:32:48.047Z,7.95
2023-05-15T05:35:14.952Z,8.35
2023-05-15T05:37:41.799Z,6.77
2023-05-15T05:40:09.626Z,8.63
2023-05-15T05:42:36.566Z,7.10
2023-05-15T05:45:06.385Z,7.95
2023-05-15T05:47:33.868Z,8.32
2023-05-15T05:50:00.699Z,10.70
2023-05-15T05:52:27.528Z,8.63
2023-05-15T05:54:54.416Z,8.60
2023-05-15T05:57:21.228Z,7.68
2023-05-15T05:59:48.034Z,7.68
2023-05-15T06:02:14.877Z,7.67
2023-05-15T06:04:41.695Z,8.40
2023-05-15T06:07:08.649Z,6.75
2023-05-15T06:09:35.514Z,8.02
2023-05-15T06:12:02.310Z,6.43
2023-05-15T06:14:29.201Z,7.40
2023-05-15T06:16:56.368Z,8.30
2023-05-15T06:19:23.317Z,8.18
2023-05-15T06:21:50.159Z,7.53
2023-05-15T06:24:17.189Z,8.10
2023-05-15T06:26:44.109Z,6.93
2023-05-15T06:29:10.917Z,8.98
2023-05-15T06:31:37.788Z,7.68
2023-05-15T06:34:04.702Z,7.97
2023-05-15T06:36:31.510Z,6.72
2023-05-15T06:38:58.361Z,9.03
2023-05-15T06:41:25.537Z,7.53
2023-05-15T06:43:52.402Z,7.93
2023-05-15T06:46:19.545Z,7.88
2023-05-15T06:48:50.327Z,7.55
2023-05-15T06:51:19.308Z,8.20
2023-05-15T06:53:46.308Z,8.55
2023-05-15T06:56:13.124Z,8.70
2023-05-15T06:58:40.016Z,8.25
2023-05-15T07:01:06.880Z,7.63
2023-05-15T07:03:33.791Z,9.67
2023-05-15T07:06:00.650Z,8.63
2023-05-15T07:08:27.695Z,10.80
2023-05-15T07:10:54.535Z,10.60
2023-05-15T07:13:21.939Z,10.07
2023-05-15T07:15:48.949Z,10.00
2023-05-15T07:18:15.825Z,10.95
2023-05-15T07:20:42.680Z,10.65
2023-05-15T07:23:09.755Z,9.13
2023-05-15T07:25:36.492Z,9.27
2023-05-15T07:28:03.474Z,8.20
2023-05-15T07:30:30.459Z,10.88
2023-05-15T07:32:57.404Z,9.35
2023-05-15T07:35:29.506Z,11.98
2023-05-15T07:37:56.632Z,10.48
2023-05-15T07:40:23.598Z,12.20
2023-05-15T07:42:53.070Z,11.18
2023-05-15T07:45:20.110Z,8.45
2023-05-15T07:47:48.554Z,18.80
2023-05-15T07:50:16.817Z,12.23
2023-05-15T07:52:44.001Z,10.33
2023-05-15T07:55:11.630Z,9.88
2023-05-15T07:57:38.887Z,8.23
2023-05-15T08:00:09.176Z,9.90
2023-05-15T08:02:39.457Z,11.65
2023-05-15T08:05:06.891Z,10.83
2023-05-15T08:07:35.039Z,11.55
2023-05-15T08:10:02.019Z,14.30
2023-05-15T08:12:28.874Z,12.27
2023-05-15T08:14:56.506Z,9.68
2023-05-15T08:17:26.113Z,8.50
2023-05-15T08:19:53.570Z,9.43
2023-05-15T08:22:20.485Z,10.82
2023-05-15T08:24:47.482Z,10.38
2023-05-15T08:27:14.343Z,9.20
2023-05-15T08:29:41.277Z,7.50
2023-05-15T08:32:09.266Z,8.93
2023-05-15T08:34:36.172Z,8.13
2023-05-15T08:37:04.565Z,8.75
2023-05-15T08:39:31.552Z,9.02
2023-05-15T08:42:08.517Z,8.57
2023-05-15T08:44:35.845Z,7.78
2023-05-15T08:47:03.137Z,7.70
2023-05-15T08:49:49.282Z,10.85
2023-05-15T08:52:16.889Z,8.30
2023-05-15T08:54:44.646Z,6.73
2023-05-15T08:57:13.399Z,8.10
2023-05-15T08:59:40.169Z,6.13
2023-05-15T09:02:07.204Z,10.30
2023-05-15T09:04:34.339Z,10.63
2023-05-15T09:07:01.506Z,7.47
2023-05-15T09:09:29.174Z,7.70
2023-05-15T09:11:56.630Z,6.95
2023-05-15T09:14:23.441Z,7.80
2023-05-15T09:16:50.308Z,7.47
2023-05-15T09:19:20.364Z,5.93
2023-05-15T09:21:47.470Z,7.30
2023-05-15T09:24:25.607Z,7.18
2023-05-15T09:27:06.153Z,8.52
2023-05-15T09:29:34.817Z,9.02
2023-05-15T09:32:09.166Z,8.73
2023-05-15T09:34:38.842Z,9.40
2023-05-15T09:37:09.995Z,6.30
2023-05-15T09:39:42.280Z,7.32
2023-05-15T09:42:11.368Z,8.20
2023-05-15T09:44:46.293Z,9.37
2023-05-15T09:47:14.629Z,6.90
2023-05-15T09:49:47.558Z,7.78
2023-05-15T09:52:16.308Z,8.27
2023-05-15T09:54:48.185Z,8.60
2023-05-15T09:57:22.005Z,7.43
2023-05-15T09:59:49.617Z,8.02
2023-05-15T10:02:27.489Z,6.95
2023-05-15T10:04:56.063Z,7.40
2023-05-15T10:07:34.302Z,6.93
2023-05-15T10:10:02.568Z,8.63
2023-05-15T10:12:31.183Z,10.05
2023-05-15T10:14:59.597Z,9.15
2023-05-15T10:17:28.807Z,10.85
2023-05-15T10:19:59.549Z,9.45
2023-05-15T10:22:30.046Z,8.50
2023-05-15T10:25:35.500Z,10.88
2023-05-15T10:28:03.245Z,8.48
2023-05-15T10:30:32.427Z,9.35
2023-05-15T10:33:01.007Z,13.85
2023-05-15T10:35:28.855Z,10.60
2023-05-15T10:37:57.144Z,11.35
2023-05-15T10:40:28.762Z,10.90
2023-05-15T10:42:56.987Z,9.98
2023-05-15T10:45:24.467Z,9.35
2023-05-15T10:47:52.318Z,9.40
2023-05-15T10:50:19.314Z,10.45
2023-05-15T10:52:46.318Z,11.07
2023-05-15T10:55:17.931Z,9.48
2023-05-15T10:57:48.013Z,11.23
2023-05-15T11:00:24.501Z,9.93
2023-05-15T11:02:52.262Z,10.65
2023-05-15T11:05:22.743Z,10.02
2023-05-15T11:08:17.308Z,10.35
2023-05-15T11:10:44.243Z,9.13
2023-05-15T11:13:11.208Z,11.30
2023-05-15T11:15:49.351Z,8.32
2023-05-15T11:18:16.456Z,10.30
2023-05-15T11:21:03.342Z,10.05
2023-05-15T11:23:38.450Z,10.95
2023-05-15T11:26:05.885Z,11.17
2023-05-15T11:28:41.928Z,9.95
2023-05-15T11:31:08.865Z,8.30
2023-05-15T11:33:38.865Z,7.95
2023-05-15T11:36:06.268Z,9.70
2023-05-15T11:38:38.951Z,9.13
2023-05-15T11:41:20.526Z,9.13
2023-05-15T11:43:51.402Z,10.95
2023-05-15T11:46:18.561Z,11.60
2023-05-15T11:48:47.262Z,10.82
2023-05-15T11:51:20.348Z,13.93
2023-05-15T11:53:49.581Z,11.82
2023-05-15T11:56:20.700Z,11.30
2023-05-15T11:58:54.521Z,13.13
2023-05-15T12:01:21.501Z,12.70
2023-05-15T12:03:49.029Z,15.10
2023-05-15T12:06:16.618Z,11.55
2023-05-15T12:08:43.941Z,14.45
2023-05-15T12:11:12.920Z,12.93
2023-05-15T12:13:39.825Z,14.82
2023-05-15T12:16:06.899Z,11.73
2023-05-15T12:18:34.625Z,15.32
2023-05-15T12:21:01.242Z,10.05
2023-05-15T12:23:28.712Z,11.70
2023-05-15T12:26:01.025Z,12.18
2023-05-15T12:28:31.381Z,11.73
2023-05-15T12:30:59.139Z,14.55
2023-05-15T12:33:26.136Z,12.75
2023-05-15T12:36:00.825Z,11.52
2023-05-15T12:38:28.019Z,12.65
2023-05-15T12:40:55.112Z,11.20
2023-05-15T12:43:24.934Z,10.68
2023-05-15T12:45:56.180Z,9.88
2023-05-15T12:48:23.510Z,9.10
2023-05-15T12:50:50.470Z,11.00
2023-05-15T12:53:17.883Z,8.67
2023-05-15T12:55:46.965Z,6.45
2023-05-15T12:58:16.894Z,9.32
2023-05-15T13:00:44.815Z,7.82
2023-05-15T13:03:12.800Z,7.28
2023-05-15T13:05:43.745Z,5.23
2023-05-15T13:08:15.709Z,6.28
2023-05-15T13:10:42.648Z,7.97
2023-05-15T13:13:09.565Z,6.25
2023-05-15T13:15:44.087Z,6.97
2023-05-15T13:18:14.974Z,7.00
2023-05-15T13:20:49.997Z,8.43
2023-05-15T13:23:19.317Z,7.38
2023-05-15T13:25:46.431Z,7.88
2023-05-15T13:28:13.988Z,7.72
2023-05-15T13:30:42.183Z,8.73
2023-05-15T13:33:10.772Z,6.07
2023-05-15T13:35:38.948Z,6.07
2023-05-15T13:38:07.055Z,9.05
2023-05-15T13:40:34.980Z,9.52
2023-05-15T13:43:01.788Z,8.47
2023-05-15T13:45:28.713Z,6.18
2023-05-15T13:47:56.001Z,5.85
2023-05-15T13:50:22.900Z,6.60
2023-05-15T13:52:49.821Z,9.20
2023-05-15T13:55:16.798Z,8.27
2023-05-15T13:57:44.039Z,6.45
2023-05-15T14:00:12.904Z,6.03
2023-05-15T14:02:44.123Z,7.13
2023-05-15T14:05:12.752Z,5.40
2023-05-15T14:07:40.613Z,5.67
2023-05-15T14:10:07.998Z,7.78
2023-05-15T14:12:35.176Z,5.55
2023-05-15T14:15:02.012Z,4.90
2023-05-15T14:17:28.870Z,4.68
2023-05-15T14:19:55.833Z,5.97
2023-05-15T14:22:22.672Z,6.68
2023-05-15T14:24:49.479Z,6.25
2023-05-15T14:27:16.374Z,5.95
2023-05-15T14:29:43.278Z,5.85
2023-05-15T14:32:10.131Z,6.20
2023-05-15T14:34:37.030Z,5.95
2023-05-15T14:37:04.008Z,9.63
2023-05-15T14:39:30.833Z,7.18
2023-05-15T14:41:58.135Z,7.82
2023-05-15T14:44:25.007Z,5.77
2023-05-15T14:47:14.247Z,7.30
2023-05-15T14:49:41.186Z,5.50
2023-05-15T14:52:09.954Z,5.82
2023-05-15T14:54:38.332Z,13.75
2023-05-15T14:57:05.490Z,5.83
2023-05-15T14:59:32.376Z,6.57
2023-05-15T15:01:59.483Z,7.57
2023-05-15T15:04:26.429Z,6.15
2023-05-15T15:06:53.284Z,5.50
2023-05-15T15:09:21.085Z,7.80
2023-05-15T15:11:48.617Z,9.93
2023-05-15T15:14:15.460Z,7.55
2023-05-15T15:16:42.560Z,8.73
2023-05-15T15:19:09.668Z,7.45
2023-05-15T15:21:36.569Z,7.70
2023-05-15T15:24:03.559Z,8.60
2023-05-15T15:26:30.517Z,9.82
2023-05-15T15:28:57.406Z,11.27
2023-05-15T15:31:24.276Z,6.38
2023-05-15T15:33:51.204Z,8.70
2023-05-15T15:36:17.982Z,6.95
2023-05-15T15:38:44.868Z,7.55
2023-05-15T15:41:11.752Z,6.78
2023-05-15T15:43:38.665Z,8.40
2023-05-15T15:46:05.852Z,13.13
2023-05-15T15:48:32.753Z,8.95
2023-05-15T15:50:59.638Z,6.30
2023-05-15T15:53:26.696Z,5.95
2023-05-15T15:55:53.630Z,7.53
2023-05-15T15:58:22.622Z,7.17
2023-05-15T16:00:52.460Z,10.43
2023-05-15T16:03:22.334Z,8.27
2023-05-15T16:05:49.517Z,7.75
2023-05-15T16:08:16.640Z,7.97
2023-05-15T16:10:46.865Z,6.37
2023-05-15T16:13:13.850Z,7.00
2023-05-15T16:15:41.050Z,6.38
2023-05-15T16:18:07.964Z,5.93
2023-05-15T16:20:35.413Z,7.82
2023-05-15T16:23:02.587Z,8.30
2023-05-15T16:25:29.441Z,6.70
2023-05-15T16:27:56.299Z,5.57
2023-05-15T16:30:33.857Z,5.70
2023-05-15T16:33:07.617Z,8.60
2023-05-15T16:35:35.405Z,7.30
2023-05-15T16:38:05.382Z,9.60
2023-05-15T16:40:42.061Z,6.63
2023-05-15T16:43:09.102Z,8.68
2023-05-15T16:45:48.854Z,9.48
2023-05-15T16:48:16.167Z,7.83
2023-05-15T16:50:43.142Z,7.78
2023-05-15T16:53:17.342Z,12.02
2023-05-15T16:55:45.544Z,8.68
2023-05-15T16:58:26.227Z,9.80
2023-05-15T17:00:53.056Z,10.43
2023-05-15T17:03:19.917Z,11.13
2023-05-15T17:06:01.903Z,10.02
2023-05-15T17:08:32.486Z,10.68
2023-05-15T17:11:10.505Z,10.57
2023-05-15T17:13:37.531Z,14.50
2023-05-15T17:16:04.674Z,11.82
2023-05-15T17:18:31.624Z,10.18
2023-05-15T17:20:58.679Z,8.43
2023-05-15T17:23:25.671Z,7.70
2023-05-15T17:25:52.689Z,7.33
2023-05-15T17:28:22.069Z,8.75
2023-05-15T17:30:49.038Z,7.88
2023-05-15T17:33:16.065Z,6.95
2023-05-15T17:35:43.055Z,7.30
2023-05-15T17:38:09.981Z,8.57
2023-05-15T17:40:36.902Z,9.45
2023-05-15T17:43:03.882Z,8.80
2023-05-15T17:45:30.880Z,11.85
2023-05-15T17:47:57.678Z,7.15
2023-05-15T17:50:24.688Z,8.23
2023-05-15T17:52:51.545Z,8.07
2023-05-15T17:55:18.389Z,11.73
2023-05-15T17:57:45.243Z,6.50
2023-05-15T18:00:12.691Z,8.25
2023-05-15T18:02:39.658Z,8.33
2023-05-15T18:05:08.313Z,8.68
2023-05-15T18:07:35.141Z,9.75
2023-05-15T18:10:02.075Z,7.95
2023-05-15T18:12:29.051Z,12.18
2023-05-15T18:14:56.090Z,11.33
2023-05-15T18:17:22.958Z,7.45
2023-05-15T18:19:49.907Z,7.93
2023-05-15T18:22:16.840Z,7.65
2023-05-15T18:24:43.789Z,8.25
2023-05-15T18:27:10.729Z,8.43
2023-05-15T18:29:37.538Z,5.90
2023-05-15T18:32:04.657Z,6.88
2023-05-15T18:34:32.243Z,9.70
2023-05-15T18:36:59.203Z,6.40
2023-05-15T18:39:26.178Z,8.63
2023-05-15T18:41:53.188Z,6.22
2023-05-15T18:44:20.167Z,6.20
2023-05-15T18:46:49.331Z,8.68
2023-05-15T18:49:16.275Z,5.82
2023-05-15T18:51:43.136Z,8.30
2023-05-15T18:54:09.996Z,6.15
2023-05-15T18:56:37.052Z,7.93
2023-05-15T18:59:03.920Z,5.90
2023-05-15T19:01:30.784Z,7.28
2023-05-15T19:03:57.877Z,8.10
2023-05-15T19:06:24.698Z,6.65
2023-05-15T19:08:51.684Z,8.75
2023-05-15T19:11:18.632Z,9.30
2023-05-15T19:13:45.550Z,7.80
2023-05-15T19:16:15.440Z,8.37
2023-05-15T19:18:42.561Z,8.13
2023-05-15T19:21:09.576Z,7.47
2023-05-15T19:23:36.537Z,6.88
2023-05-15T19:26:03.621Z,7.50
2023-05-15T19:28:30.799Z,7.13
2023-05-15T19:31:00.925Z,6.50
2023-05-15T19:33:27.900Z,8.00
2023-05-15T19:35:57.836Z,7.97
2023-05-15T19:38:32.152Z,8.00
2023-05-15T19:40:59.165Z,5.50
2023-05-15T19:43:26.006Z,7.30
2023-05-15T19:45:55.622Z,6.38
2023-05-15T19:48:22.694Z,8.15
2023-05-15T19:50:49.610Z,5.70
2023-05-15T19:53:18.261Z,6.10
2023-05-15T19:55:45.318Z,6.15
2023-05-15T19:58:12.133Z,6.00
2023-05-15T20:00:39.021Z,6.85
2023-05-15T20:03:08.837Z,5.82
2023-05-15T20:05:40.739Z,6.53
2023-05-15T20:08:07.638Z,6.35
2023-05-15T20:10:34.793Z,8.05
2023-05-15T20:13:01.812Z,6.95
2023-05-15T20:15:28.656Z,7.00
2023-05-15T20:17:55.761Z,6.03
2023-05-15T20:20:22.886Z,5.30
2023-05-15T20:22:49.698Z,6.63
2023-05-15T20:25:16.742Z,6.43
2023-05-15T20:27:43.622Z,7.63
2023-05-15T20:30:11.318Z,5.63
2023-05-15T20:32:38.404Z,6.53
2023-05-15T20:35:05.926Z,6.68
2023-05-15T20:37:32.844Z,5.40
2023-05-15T20:39:59.712Z,7.57
2023-05-15T20:42:28.238Z,6.23
2023-05-15T20:44:55.116Z,5.72
2023-05-15T20:47:23.899Z,5.28
2023-05-15T20:49:50.861Z,7.72
2023-05-15T20:52:17.691Z,10.73
2023-05-15T20:54:44.618Z,6.73
2023-05-15T20:57:11.436Z,7.15
2023-05-15T20:59:38.317Z,7.03
2023-05-15T21:02:05.488Z,10.10
2023-05-15T21:04:32.368Z,16.35
2023-05-15T21:06:59.296Z,19.60
2023-05-15T21:09:26.134Z,11.48
2023-05-15T21:11:52.961Z,8.10
2023-05-15T21:14:19.897Z,6.03
2023-05-15T21:16:46.842Z,5.90
2023-05-15T21:19:13.806Z,6.30
2023-05-15T21:21:40.719Z,6.85
2023-05-15T21:24:07.603Z,7.53
2023-05-15T21:26:34.608Z,12.77
2023-05-15T21:29:01.479Z,7.47
2023-05-15T21:31:28.548Z,6.63
2023-05-15T21:33:55.476Z,7.07
2023-05-15T21:36:22.717Z,9.55
2023-05-15T21:38:49.690Z,8.55
2023-05-15T21:41:16.568Z,8.70
2023-05-15T21:43:43.386Z,7.33
2023-05-15T21:46:10.428Z,8.10
2023-05-15T21:48:37.212Z,7.18
2023-05-15T21:51:04.046Z,7.03
2023-05-15T21:53:30.913Z,6.57
2023-05-15T21:56:02.138Z,8.37
2023-05-15T21:58:29.265Z,6.88
2023-05-15T22:00:56.296Z,5.95
2023-05-15T22:03:23.292Z,6.63
2023-05-15T22:05:50.422Z,8.57
2023-05-15T22:08:17.418Z,6.50
2023-05-15T22:10:44.518Z,6.90
2023-05-15T22:13:11.592Z,6.45
2023-05-15T22:15:38.547Z,6.15
2023-05-15T22:18:05.637Z,5.07
2023-05-15T22:20:33.117Z,7.10
2023-05-15T22:23:00.340Z,7.40
2023-05-15T22:25:27.147Z,9.07
2023-05-15T22:27:53.942Z,7.55
2023-05-15T22:30:21.002Z,7.15
2023-05-15T22:32:47.880Z,6.47
2023-05-15T22:35:14.856Z,7.10
2023-05-15T22:37:41.723Z,7.95
2023-05-15T22:40:10.521Z,6.65
2023-05-15T22:42:37.659Z,5.93
2023-05-15T22:45:05.551Z,5.27
2023-05-15T22:47:32.871Z,6.05
2023-05-15T22:49:59.829Z,6.50
2023-05-15T22:52:26.735Z,6.43
2023-05-15T22:54:53.636Z,7.55
2023-05-15T22:57:20.449Z,5.30
2023-05-15T22:59:47.394Z,4.82
2023-05-15T23:02:14.271Z,5.10
2023-05-15T23:04:41.195Z,7.07
2023-05-15T23:07:08.045Z,5.90
2023-05-15T23:09:34.882Z,6.20
2023-05-15T23:12:01.661Z,5.05
2023-05-15T23:14:28.605Z,6.93
2023-05-15T23:16:55.436Z,7.18
2023-05-15T23:19:22.330Z,6.47
2023-05-15T23:21:49.150Z,5.47
2023-05-15T23:24:16.058Z,6.97
2023-05-15T23:26:42.877Z,7.05
2023-05-15T23:29:09.743Z,4.80
2023-05-15T23:31:36.559Z,4.85
2023-05-15T23:34:03.367Z,7.40
2023-05-15T23:36:30.223Z,5.60
2023-05-15T23:38:57.052Z,6.43
2023-05-15T23:41:24.282Z,7.68
2023-05-15T23:43:51.087Z,4.60
2023-05-15T23:46:18.105Z,5.03
2023-05-15T23:48:44.970Z,4.68
2023-05-15T23:51:11.969Z,4.47
2023-05-15T23:53:38.816Z,4.15
2023-05-15T23:56:06.496Z,4.40
2023-05-15T23:58:33.731Z,4.30
